sensor_id;sensor_type;location;lat;lon;timestamp;P1;durP1;ratioP1;P2;durP2;ratioP2
50671;SDS011;46021;55.882;37.654;2024-01-30T00:01:19;10.20;;;4.67;;
50671;SDS011;46021;55.882;37.654;2024-01-30T00:03:47;10.10;;;5.00;;
50671;SDS011;46021;55.882;37.654;2024-01-30T00:06:18;8.20;;;3.58;;
50671;SDS011;46021;55.882;37.654;2024-01-30T00:08:45;9.50;;;3.75;;
50671;SDS011;46021;55.882;37.654;2024-01-30T00:11:14;9.07;;;4.57;;
50671;SDS011;46021;55.882;37.654;2024-01-30T00:13:41;5.25;;;3.58;;
50671;SDS011;46021;55.882;37.654;2024-01-30T00:16:08;8.65;;;3.80;;
50671;SDS011;46021;55.882;37.654;2024-01-30T00:18:47;7.65;;;4.72;;
50671;SDS011;46021;55.882;37.654;2024-01-30T00:21:14;8.23;;;4.15;;
50671;SDS011;46021;55.882;37.654;2024-01-30T00:23:41;9.82;;;4.63;;
50671;SDS011;46021;55.882;37.654;2024-01-30T00:26:09;9.25;;;4.82;;
50671;SDS011;46021;55.882;37.654;2024-01-30T00:31:03;6.22;;;3.42;;
50671;SDS011;46021;55.882;37.654;2024-01-30T00:33:31;4.73;;;2.97;;
50671;SDS011;46021;55.882;37.654;2024-01-30T00:35:59;9.05;;;4.80;;
50671;SDS011;46021;55.882;37.654;2024-01-30T00:38:26;7.70;;;3.60;;
50671;SDS011;46021;55.882;37.654;2024-01-30T00:40:53;9.60;;;4.53;;
50671;SDS011;46021;55.882;37.654;2024-01-30T00:43:20;8.73;;;3.85;;
50671;SDS011;46021;55.882;37.654;2024-01-30T00:45:47;9.77;;;4.03;;
50671;SDS011;46021;55.882;37.654;2024-01-30T00:48:16;8.23;;;4.55;;
50671;SDS011;46021;55.882;37.654;2024-01-30T00:50:43;8.15;;;3.88;;
50671;SDS011;46021;55.882;37.654;2024-01-30T00:53:11;8.82;;;3.08;;
50671;SDS011;46021;55.882;37.654;2024-01-30T00:55:38;6.30;;;3.42;;
50671;SDS011;46021;55.882;37.654;2024-01-30T00:58:05;11.85;;;6.25;;
50671;SDS011;46021;55.882;37.654;2024-01-30T01:00:33;8.57;;;4.10;;
50671;SDS011;46021;55.882;37.654;2024-01-30T01:03:00;8.60;;;4.13;;
50671;SDS011;46021;55.882;37.654;2024-01-30T01:05:28;7.47;;;3.45;;
50671;SDS011;46021;55.882;37.654;2024-01-30T01:07:55;7.15;;;4.50;;
50671;SDS011;46021;55.882;37.654;2024-01-30T01:10:23;9.82;;;4.63;;
50671;SDS011;46021;55.882;37.654;2024-01-30T01:12:50;7.90;;;4.00;;
50671;SDS011;46021;55.882;37.654;2024-01-30T01:15:17;8.30;;;4.07;;
50671;SDS011;46021;55.882;37.654;2024-01-30T01:17:44;7.33;;;3.97;;
50671;SDS011;46021;55.882;37.654;2024-01-30T01:20:11;11.68;;;4.47;;
50671;SDS011;46021;55.882;37.654;2024-01-30T01:22:39;10.67;;;4.20;;
50671;SDS011;46021;55.882;37.654;2024-01-30T01:25:06;7.53;;;4.33;;
50671;SDS011;46021;55.882;37.654;2024-01-30T01:27:35;6.32;;;3.92;;
50671;SDS011;46021;55.882;37.654;2024-01-30T01:30:06;7.72;;;3.80;;
50671;SDS011;46021;55.882;37.654;2024-01-30T01:32:35;9.23;;;4.05;;
50671;SDS011;46021;55.882;37.654;2024-01-30T01:35:04;9.52;;;4.82;;
50671;SDS011;46021;55.882;37.654;2024-01-30T01:37:32;6.28;;;3.90;;
50671;SDS011;46021;55.882;37.654;2024-01-30T01:39:59;7.25;;;3.75;;
50671;SDS011;46021;55.882;37.654;2024-01-30T01:42:26;8.20;;;4.15;;
50671;SDS011;46021;55.882;37.654;2024-01-30T01:44:55;10.00;;;3.97;;
50671;SDS011;46021;55.882;37.654;2024-01-30T01:47:22;9.05;;;4.97;;
50671;SDS011;46021;55.882;37.654;2024-01-30T01:49:49;8.45;;;4.68;;
50671;SDS011;46021;55.882;37.654;2024-01-30T01:52:16;6.78;;;3.30;;
50671;SDS011;46021;55.882;37.654;2024-01-30T01:54:44;9.90;;;4.80;;
50671;SDS011;46021;55.882;37.654;2024-01-30T01:57:11;9.73;;;4.40;;
50671;SDS011;46021;55.882;37.654;2024-01-30T01:59:38;8.00;;;4.25;;
50671;SDS011;46021;55.882;37.654;2024-01-30T02:02:07;10.03;;;4.93;;
50671;SDS011;46021;55.882;37.654;2024-01-30T02:04:37;11.32;;;3.85;;
50671;SDS011;46021;55.882;37.654;2024-01-30T02:07:05;9.50;;;4.47;;
50671;SDS011;46021;55.882;37.654;2024-01-30T02:09:32;8.40;;;4.83;;
50671;SDS011;46021;55.882;37.654;2024-01-30T02:11:59;9.60;;;5.07;;
50671;SDS011;46021;55.882;37.654;2024-01-30T02:14:26;8.23;;;4.55;;
50671;SDS011;46021;55.882;37.654;2024-01-30T02:16:53;6.43;;;3.58;;
50671;SDS011;46021;55.882;37.654;2024-01-30T02:19:22;8.35;;;3.95;;
50671;SDS011;46021;55.882;37.654;2024-01-30T02:21:50;8.43;;;3.80;;
50671;SDS011;46021;55.882;37.654;2024-01-30T02:24:18;8.23;;;4.82;;
50671;SDS011;46021;55.882;37.654;2024-01-30T02:26:45;6.57;;;4.13;;
50671;SDS011;46021;55.882;37.654;2024-01-30T02:29:12;9.37;;;3.50;;
50671;SDS011;46021;55.882;37.654;2024-01-30T02:31:40;12.63;;;5.60;;
50671;SDS011;46021;55.882;37.654;2024-01-30T02:34:07;9.98;;;4.43;;
50671;SDS011;46021;55.882;37.654;2024-01-30T02:36:34;12.63;;;4.63;;
50671;SDS011;46021;55.882;37.654;2024-01-30T02:39:02;9.18;;;3.63;;
50671;SDS011;46021;55.882;37.654;2024-01-30T02:41:30;7.57;;;4.00;;
50671;SDS011;46021;55.882;37.654;2024-01-30T02:43:57;11.80;;;4.63;;
50671;SDS011;46021;55.882;37.654;2024-01-30T02:46:24;13.40;;;4.18;;
50671;SDS011;46021;55.882;37.654;2024-01-30T02:48:51;8.63;;;4.22;;
50671;SDS011;46021;55.882;37.654;2024-01-30T02:51:18;11.43;;;5.20;;
50671;SDS011;46021;55.882;37.654;2024-01-30T02:53:45;11.05;;;4.50;;
50671;SDS011;46021;55.882;37.654;2024-01-30T02:56:14;10.82;;;4.90;;
50671;SDS011;46021;55.882;37.654;2024-01-30T02:58:41;9.55;;;5.82;;
50671;SDS011;46021;55.882;37.654;2024-01-30T03:01:08;11.20;;;4.97;;
50671;SDS011;46021;55.882;37.654;2024-01-30T03:03:35;9.00;;;4.13;;
50671;SDS011;46021;55.882;37.654;2024-01-30T03:06:03;10.23;;;4.25;;
50671;SDS011;46021;55.882;37.654;2024-01-30T03:08:30;8.52;;;4.65;;
50671;SDS011;46021;55.882;37.654;2024-01-30T03:10:57;7.15;;;3.65;;
50671;SDS011;46021;55.882;37.654;2024-01-30T03:13:25;11.23;;;4.55;;
50671;SDS011;46021;55.882;37.654;2024-01-30T03:15:53;8.80;;;3.65;;
50671;SDS011;46021;55.882;37.654;2024-01-30T03:18:20;7.53;;;3.97;;
50671;SDS011;46021;55.882;37.654;2024-01-30T03:20:47;7.90;;;3.92;;
50671;SDS011;46021;55.882;37.654;2024-01-30T03:23:14;9.80;;;5.30;;
50671;SDS011;46021;55.882;37.654;2024-01-30T03:25:41;6.75;;;3.25;;
50671;SDS011;46021;55.882;37.654;2024-01-30T03:28:08;7.25;;;4.30;;
50671;SDS011;46021;55.882;37.654;2024-01-30T03:30:37;9.15;;;4.80;;
50671;SDS011;46021;55.882;37.654;2024-01-30T03:33:04;9.30;;;4.07;;
50671;SDS011;46021;55.882;37.654;2024-01-30T03:35:31;7.38;;;4.13;;
50671;SDS011;46021;55.882;37.654;2024-01-30T03:37:58;8.90;;;4.55;;
50671;SDS011;46021;55.882;37.654;2024-01-30T03:40:25;7.57;;;3.83;;
50671;SDS011;46021;55.882;37.654;2024-01-30T03:42:52;12.23;;;5.30;;
50671;SDS011;46021;55.882;37.654;2024-01-30T03:45:19;14.03;;;4.93;;
50671;SDS011;46021;55.882;37.654;2024-01-30T03:47:48;12.88;;;5.95;;
50671;SDS011;46021;55.882;37.654;2024-01-30T03:50:15;8.23;;;4.45;;
50671;SDS011;46021;55.882;37.654;2024-01-30T03:52:42;15.23;;;5.63;;
50671;SDS011;46021;55.882;37.654;2024-01-30T03:55:09;10.93;;;5.17;;
50671;SDS011;46021;55.882;37.654;2024-01-30T03:57:36;9.82;;;5.30;;
50671;SDS011;46021;55.882;37.654;2024-01-30T04:00:03;8.07;;;4.13;;
50671;SDS011;46021;55.882;37.654;2024-01-30T04:02:38;10.98;;;5.15;;
50671;SDS011;46021;55.882;37.654;2024-01-30T04:05:07;11.02;;;5.82;;
50671;SDS011;46021;55.882;37.654;2024-01-30T04:07:34;11.00;;;5.13;;
50671;SDS011;46021;55.882;37.654;2024-01-30T04:10:02;8.23;;;4.47;;
50671;SDS011;46021;55.882;37.654;2024-01-30T04:12:31;15.00;;;4.78;;
50671;SDS011;46021;55.882;37.654;2024-01-30T04:14:58;11.87;;;4.93;;
50671;SDS011;46021;55.882;37.654;2024-01-30T04:17:25;12.57;;;5.33;;
50671;SDS011;46021;55.882;37.654;2024-01-30T04:19:54;10.10;;;5.03;;
50671;SDS011;46021;55.882;37.654;2024-01-30T04:22:22;8.57;;;4.80;;
50671;SDS011;46021;55.882;37.654;2024-01-30T04:24:50;12.80;;;5.32;;
50671;SDS011;46021;55.882;37.654;2024-01-30T04:27:17;12.02;;;5.22;;
50671;SDS011;46021;55.882;37.654;2024-01-30T04:29:44;9.73;;;4.60;;
50671;SDS011;46021;55.882;37.654;2024-01-30T04:32:11;12.85;;;6.55;;
50671;SDS011;46021;55.882;37.654;2024-01-30T04:34:38;9.98;;;5.90;;
50671;SDS011;46021;55.882;37.654;2024-01-30T04:37:05;11.43;;;5.45;;
50671;SDS011;46021;55.882;37.654;2024-01-30T04:39:34;11.33;;;5.97;;
50671;SDS011;46021;55.882;37.654;2024-01-30T04:42:01;17.67;;;5.07;;
50671;SDS011;46021;55.882;37.654;2024-01-30T04:44:28;9.75;;;4.40;;
50671;SDS011;46021;55.882;37.654;2024-01-30T04:46:55;7.78;;;4.45;;
50671;SDS011;46021;55.882;37.654;2024-01-30T04:49:24;9.52;;;4.47;;
50671;SDS011;46021;55.882;37.654;2024-01-30T04:51:51;11.57;;;4.75;;
50671;SDS011;46021;55.882;37.654;2024-01-30T04:54:18;12.20;;;4.50;;
50671;SDS011;46021;55.882;37.654;2024-01-30T04:56:47;15.80;;;5.65;;
50671;SDS011;46021;55.882;37.654;2024-01-30T04:59:14;10.45;;;4.65;;
50671;SDS011;46021;55.882;37.654;2024-01-30T05:01:41;10.80;;;4.67;;
50671;SDS011;46021;55.882;37.654;2024-01-30T05:04:08;8.77;;;4.72;;
50671;SDS011;46021;55.882;37.654;2024-01-30T05:09:03;13.95;;;5.45;;
50671;SDS011;46021;55.882;37.654;2024-01-30T05:11:30;14.35;;;6.03;;
50671;SDS011;46021;55.882;37.654;2024-01-30T05:13:58;12.83;;;5.30;;
50671;SDS011;46021;55.882;37.654;2024-01-30T05:16:26;13.45;;;5.35;;
50671;SDS011;46021;55.882;37.654;2024-01-30T05:18:53;10.10;;;4.53;;
50671;SDS011;46021;55.882;37.654;2024-01-30T05:21:20;7.82;;;4.22;;
50671;SDS011;46021;55.882;37.654;2024-01-30T05:23:47;8.73;;;4.20;;
50671;SDS011;46021;55.882;37.654;2024-01-30T05:26:14;11.13;;;5.35;;
50671;SDS011;46021;55.882;37.654;2024-01-30T05:28:41;10.00;;;4.80;;
50671;SDS011;46021;55.882;37.654;2024-01-30T05:31:11;11.95;;;5.47;;
50671;SDS011;46021;55.882;37.654;2024-01-30T05:33:38;17.80;;;9.35;;
50671;SDS011;46021;55.882;37.654;2024-01-30T05:36:05;13.40;;;5.53;;
50671;SDS011;46021;55.882;37.654;2024-01-30T05:38:32;10.82;;;5.30;;
50671;SDS011;46021;55.882;37.654;2024-01-30T05:41:00;8.85;;;4.15;;
50671;SDS011;46021;55.882;37.654;2024-01-30T05:43:27;10.57;;;5.45;;
50671;SDS011;46021;55.882;37.654;2024-01-30T05:45:54;13.13;;;6.07;;
50671;SDS011;46021;55.882;37.654;2024-01-30T05:48:22;12.10;;;4.87;;
50671;SDS011;46021;55.882;37.654;2024-01-30T05:50:49;16.08;;;10.38;;
50671;SDS011;46021;55.882;37.654;2024-01-30T05:53:17;16.60;;;4.88;;
50671;SDS011;46021;55.882;37.654;2024-01-30T05:55:44;13.18;;;5.70;;
50671;SDS011;46021;55.882;37.654;2024-01-30T05:58:11;10.60;;;5.13;;
50671;SDS011;46021;55.882;37.654;2024-01-30T06:00:38;9.87;;;4.50;;
50671;SDS011;46021;55.882;37.654;2024-01-30T06:03:05;12.80;;;5.53;;
50671;SDS011;46021;55.882;37.654;2024-01-30T06:05:34;12.48;;;6.25;;
50671;SDS011;46021;55.882;37.654;2024-01-30T06:08:01;13.65;;;6.55;;
50671;SDS011;46021;55.882;37.654;2024-01-30T06:10:29;13.05;;;6.25;;
50671;SDS011;46021;55.882;37.654;2024-01-30T06:12:56;18.33;;;7.80;;
50671;SDS011;46021;55.882;37.654;2024-01-30T06:15:23;11.73;;;5.85;;
50671;SDS011;46021;55.882;37.654;2024-01-30T06:17:50;11.63;;;5.53;;
50671;SDS011;46021;55.882;37.654;2024-01-30T06:20:17;18.77;;;6.85;;
50671;SDS011;46021;55.882;37.654;2024-01-30T06:22:45;17.00;;;7.53;;
50671;SDS011;46021;55.882;37.654;2024-01-30T06:25:12;15.80;;;7.28;;
50671;SDS011;46021;55.882;37.654;2024-01-30T06:27:40;16.20;;;7.80;;
50671;SDS011;46021;55.882;37.654;2024-01-30T06:30:07;12.27;;;6.88;;
50671;SDS011;46021;55.882;37.654;2024-01-30T06:32:35;13.38;;;5.53;;
50671;SDS011;46021;55.882;37.654;2024-01-30T06:35:02;13.35;;;6.75;;
50671;SDS011;46021;55.882;37.654;2024-01-30T06:39:58;16.60;;;6.90;;
50671;SDS011;46021;55.882;37.654;2024-01-30T06:42:25;14.10;;;6.63;;
50671;SDS011;46021;55.882;37.654;2024-01-30T06:44:52;11.77;;;5.95;;
50671;SDS011;46021;55.882;37.654;2024-01-30T06:47:19;16.93;;;5.60;;
50671;SDS011;46021;55.882;37.654;2024-01-30T06:49:46;15.03;;;6.83;;
50671;SDS011;46021;55.882;37.654;2024-01-30T06:52:13;13.97;;;6.63;;
50671;SDS011;46021;55.882;37.654;2024-01-30T06:54:40;12.43;;;5.80;;
50671;SDS011;46021;55.882;37.654;2024-01-30T06:57:09;12.00;;;5.97;;
50671;SDS011;46021;55.882;37.654;2024-01-30T06:59:39;12.13;;;6.07;;
50671;SDS011;46021;55.882;37.654;2024-01-30T07:02:08;17.75;;;6.45;;
50671;SDS011;46021;55.882;37.654;2024-01-30T07:04:36;14.82;;;5.47;;
50671;SDS011;46021;55.882;37.654;2024-01-30T07:07:04;19.13;;;10.57;;
50671;SDS011;46021;55.882;37.654;2024-01-30T07:09:37;16.27;;;10.73;;
50671;SDS011;46021;55.882;37.654;2024-01-30T07:12:04;13.32;;;6.43;;
50671;SDS011;46021;55.882;37.654;2024-01-30T07:14:33;20.75;;;6.35;;
50671;SDS011;46021;55.882;37.654;2024-01-30T07:17:00;17.10;;;11.10;;
50671;SDS011;46021;55.882;37.654;2024-01-30T07:19:28;12.25;;;6.22;;
50671;SDS011;46021;55.882;37.654;2024-01-30T07:21:55;14.90;;;6.32;;
50671;SDS011;46021;55.882;37.654;2024-01-30T07:24:22;13.90;;;6.43;;
50671;SDS011;46021;55.882;37.654;2024-01-30T07:26:49;15.63;;;5.93;;
50671;SDS011;46021;55.882;37.654;2024-01-30T07:29:16;13.30;;;6.03;;
50671;SDS011;46021;55.882;37.654;2024-01-30T07:31:45;16.45;;;5.55;;
50671;SDS011;46021;55.882;37.654;2024-01-30T07:34:12;14.55;;;6.53;;
50671;SDS011;46021;55.882;37.654;2024-01-30T07:36:39;13.30;;;6.80;;
50671;SDS011;46021;55.882;37.654;2024-01-30T07:39:06;13.57;;;6.63;;
50671;SDS011;46021;55.882;37.654;2024-01-30T07:41:33;21.47;;;6.87;;
50671;SDS011;46021;55.882;37.654;2024-01-30T07:44:00;10.52;;;5.20;;
50671;SDS011;46021;55.882;37.654;2024-01-30T07:46:29;15.65;;;10.20;;
50671;SDS011;46021;55.882;37.654;2024-01-30T07:48:58;21.65;;;6.22;;
50671;SDS011;46021;55.882;37.654;2024-01-30T07:51:25;14.80;;;6.05;;
50671;SDS011;46021;55.882;37.654;2024-01-30T07:53:53;14.55;;;6.40;;
50671;SDS011;46021;55.882;37.654;2024-01-30T07:56:21;14.97;;;6.13;;
50671;SDS011;46021;55.882;37.654;2024-01-30T07:58:48;25.27;;;7.40;;
50671;SDS011;46021;55.882;37.654;2024-01-30T08:01:15;14.73;;;7.22;;
50671;SDS011;46021;55.882;37.654;2024-01-30T08:03:42;15.95;;;7.00;;
50671;SDS011;46021;55.882;37.654;2024-01-30T08:06:11;19.80;;;7.05;;
50671;SDS011;46021;55.882;37.654;2024-01-30T08:08:38;20.90;;;7.20;;
50671;SDS011;46021;55.882;37.654;2024-01-30T08:11:05;16.10;;;6.65;;
50671;SDS011;46021;55.882;37.654;2024-01-30T08:13:33;20.02;;;10.93;;
50671;SDS011;46021;55.882;37.654;2024-01-30T08:16:00;15.32;;;7.30;;
50671;SDS011;46021;55.882;37.654;2024-01-30T08:18:27;14.93;;;7.10;;
50671;SDS011;46021;55.882;37.654;2024-01-30T08:20:54;17.00;;;7.57;;
50671;SDS011;46021;55.882;37.654;2024-01-30T08:23:22;17.98;;;7.15;;
50671;SDS011;46021;55.882;37.654;2024-01-30T08:25:50;17.42;;;11.32;;
50671;SDS011;46021;55.882;37.654;2024-01-30T08:28:17;16.60;;;6.25;;
50671;SDS011;46021;55.882;37.654;2024-01-30T08:30:44;20.10;;;12.93;;
50671;SDS011;46021;55.882;37.654;2024-01-30T08:33:11;22.40;;;11.25;;
50671;SDS011;46021;55.882;37.654;2024-01-30T08:35:38;19.83;;;6.45;;
50671;SDS011;46021;55.882;37.654;2024-01-30T08:38:05;13.13;;;6.03;;
50671;SDS011;46021;55.882;37.654;2024-01-30T08:40:34;11.20;;;6.43;;
50671;SDS011;46021;55.882;37.654;2024-01-30T08:43:01;14.02;;;7.10;;
50671;SDS011;46021;55.882;37.654;2024-01-30T08:45:29;18.20;;;11.38;;
50671;SDS011;46021;55.882;37.654;2024-01-30T08:47:56;18.52;;;10.68;;
50671;SDS011;46021;55.882;37.654;2024-01-30T08:50:23;16.60;;;7.20;;
50671;SDS011;46021;55.882;37.654;2024-01-30T08:52:50;15.45;;;6.90;;
50671;SDS011;46021;55.882;37.654;2024-01-30T08:55:17;20.63;;;11.68;;
50671;SDS011;46021;55.882;37.654;2024-01-30T08:57:46;15.77;;;7.30;;
50671;SDS011;46021;55.882;37.654;2024-01-30T09:00:13;16.92;;;10.98;;
50671;SDS011;46021;55.882;37.654;2024-01-30T09:02:41;18.85;;;10.65;;
50671;SDS011;46021;55.882;37.654;2024-01-30T09:05:09;14.97;;;6.17;;
50671;SDS011;46021;55.882;37.654;2024-01-30T09:07:36;8.65;;;5.25;;
50671;SDS011;46021;55.882;37.654;2024-01-30T09:10:04;17.10;;;5.68;;
50671;SDS011;46021;55.882;37.654;2024-01-30T09:12:32;15.48;;;10.55;;
50671;SDS011;46021;55.882;37.654;2024-01-30T09:15:01;17.05;;;10.98;;
50671;SDS011;46021;55.882;37.654;2024-01-30T09:17:30;16.73;;;10.05;;
50671;SDS011;46021;55.882;37.654;2024-01-30T09:19:57;19.07;;;6.37;;
50671;SDS011;46021;55.882;37.654;2024-01-30T09:22:24;15.88;;;7.75;;
50671;SDS011;46021;55.882;37.654;2024-01-30T09:24:51;17.60;;;6.83;;
50671;SDS011;46021;55.882;37.654;2024-01-30T09:27:18;10.77;;;5.82;;
50671;SDS011;46021;55.882;37.654;2024-01-30T09:29:45;13.57;;;6.57;;
50671;SDS011;46021;55.882;37.654;2024-01-30T09:32:13;20.63;;;6.93;;
50671;SDS011;46021;55.882;37.654;2024-01-30T09:34:41;24.13;;;11.57;;
50671;SDS011;46021;55.882;37.654;2024-01-30T09:37:08;13.63;;;6.60;;
50671;SDS011;46021;55.882;37.654;2024-01-30T09:39:35;17.95;;;7.78;;
50671;SDS011;46021;55.882;37.654;2024-01-30T09:42:08;18.80;;;6.97;;
50671;SDS011;46021;55.882;37.654;2024-01-30T09:44:44;23.92;;;11.68;;
50671;SDS011;46021;55.882;37.654;2024-01-30T09:47:15;19.98;;;11.55;;
50671;SDS011;46021;55.882;37.654;2024-01-30T09:49:44;21.23;;;12.77;;
50671;SDS011;46021;55.882;37.654;2024-01-30T09:52:11;21.90;;;7.47;;
50671;SDS011;46021;55.882;37.654;2024-01-30T09:54:39;14.82;;;6.72;;
50671;SDS011;46021;55.882;37.654;2024-01-30T09:57:08;19.67;;;10.40;;
50671;SDS011;46021;55.882;37.654;2024-01-30T09:59:35;18.67;;;7.17;;
50671;SDS011;46021;55.882;37.654;2024-01-30T10:02:02;20.02;;;11.70;;
50671;SDS011;46021;55.882;37.654;2024-01-30T10:04:31;15.20;;;6.60;;
50671;SDS011;46021;55.882;37.654;2024-01-30T10:07:01;17.83;;;10.60;;
50671;SDS011;46021;55.882;37.654;2024-01-30T10:09:29;22.63;;;12.00;;
50671;SDS011;46021;55.882;37.654;2024-01-30T10:11:58;18.70;;;11.68;;
50671;SDS011;46021;55.882;37.654;2024-01-30T10:14:25;19.38;;;11.70;;
50671;SDS011;46021;55.882;37.654;2024-01-30T10:16:53;13.02;;;6.10;;
50671;SDS011;46021;55.882;37.654;2024-01-30T10:19:20;11.38;;;6.13;;
50671;SDS011;46021;55.882;37.654;2024-01-30T10:21:48;13.45;;;6.15;;
50671;SDS011;46021;55.882;37.654;2024-01-30T10:24:16;18.95;;;11.15;;
50671;SDS011;46021;55.882;37.654;2024-01-30T10:26:43;22.80;;;7.90;;
50671;SDS011;46021;55.882;37.654;2024-01-30T10:29:10;14.00;;;7.22;;
50671;SDS011;46021;55.882;37.654;2024-01-30T10:31:37;14.13;;;6.68;;
50671;SDS011;46021;55.882;37.654;2024-01-30T10:34:04;21.65;;;12.15;;
50671;SDS011;46021;55.882;37.654;2024-01-30T10:36:32;22.20;;;11.57;;
50671;SDS011;46021;55.882;37.654;2024-01-30T10:39:07;21.65;;;11.52;;
50671;SDS011;46021;55.882;37.654;2024-01-30T10:41:39;17.05;;;11.18;;
50671;SDS011;46021;55.882;37.654;2024-01-30T10:44:11;18.52;;;10.68;;
50671;SDS011;46021;55.882;37.654;2024-01-30T10:49:05;22.88;;;11.60;;
50671;SDS011;46021;55.882;37.654;2024-01-30T10:51:33;18.58;;;11.10;;
50671;SDS011;46021;55.882;37.654;2024-01-30T10:54:02;18.40;;;10.85;;
50671;SDS011;46021;55.882;37.654;2024-01-30T10:56:33;21.45;;;12.27;;
50671;SDS011;46021;55.882;37.654;2024-01-30T10:59:01;18.38;;;11.25;;
50671;SDS011;46021;55.882;37.654;2024-01-30T11:01:29;21.80;;;7.10;;
50671;SDS011;46021;55.882;37.654;2024-01-30T11:03:57;15.15;;;6.90;;
50671;SDS011;46021;55.882;37.654;2024-01-30T11:06:24;14.82;;;6.68;;
50671;SDS011;46021;55.882;37.654;2024-01-30T11:09:01;11.57;;;5.78;;
50671;SDS011;46021;55.882;37.654;2024-01-30T11:11:48;18.42;;;10.48;;
50671;SDS011;46021;55.882;37.654;2024-01-30T11:14:16;18.08;;;11.18;;
50671;SDS011;46021;55.882;37.654;2024-01-30T11:16:49;20.02;;;11.55;;
50671;SDS011;46021;55.882;37.654;2024-01-30T11:19:22;12.43;;;6.22;;
50671;SDS011;46021;55.882;37.654;2024-01-30T11:21:50;19.98;;;11.02;;
50671;SDS011;46021;55.882;37.654;2024-01-30T11:24:19;19.88;;;12.20;;
50671;SDS011;46021;55.882;37.654;2024-01-30T11:29:17;12.70;;;6.60;;
50671;SDS011;46021;55.882;37.654;2024-01-30T11:31:54;12.68;;;5.97;;
50671;SDS011;46021;55.882;37.654;2024-01-30T11:34:21;22.15;;;12.00;;
50671;SDS011;46021;55.882;37.654;2024-01-30T11:36:51;22.20;;;12.93;;
50671;SDS011;46021;55.882;37.654;2024-01-30T11:39:25;20.80;;;12.00;;
50671;SDS011;46021;55.882;37.654;2024-01-30T11:44:21;26.77;;;8.85;;
50671;SDS011;46021;55.882;37.654;2024-01-30T11:46:49;13.05;;;6.25;;
50671;SDS011;46021;55.882;37.654;2024-01-30T11:49:18;17.67;;;11.18;;
50671;SDS011;46021;55.882;37.654;2024-01-30T11:51:45;16.17;;;6.55;;
50671;SDS011;46021;55.882;37.654;2024-01-30T11:54:14;20.48;;;12.30;;
50671;SDS011;46021;55.882;37.654;2024-01-30T11:56:41;17.60;;;6.70;;
50671;SDS011;46021;55.882;37.654;2024-01-30T11:59:10;20.90;;;7.70;;
50671;SDS011;46021;55.882;37.654;2024-01-30T12:01:37;18.85;;;11.25;;
50671;SDS011;46021;55.882;37.654;2024-01-30T12:04:04;19.73;;;11.65;;
50671;SDS011;46021;55.882;37.654;2024-01-30T12:06:34;21.63;;;11.65;;
50671;SDS011;46021;55.882;37.654;2024-01-30T12:09:02;26.88;;;9.10;;
50671;SDS011;46021;55.882;37.654;2024-01-30T12:11:30;19.02;;;11.68;;
50671;SDS011;46021;55.882;37.654;2024-01-30T12:13:57;18.23;;;6.68;;
50671;SDS011;46021;55.882;37.654;2024-01-30T12:16:26;12.98;;;6.32;;
50671;SDS011;46021;55.882;37.654;2024-01-30T12:19:00;21.33;;;12.13;;
50671;SDS011;46021;55.882;37.654;2024-01-30T12:21:28;16.10;;;10.52;;
50671;SDS011;46021;55.882;37.654;2024-01-30T12:23:55;12.70;;;6.32;;
50671;SDS011;46021;55.882;37.654;2024-01-30T12:26:23;14.77;;;6.15;;
50671;SDS011;46021;55.882;37.654;2024-01-30T12:28:50;13.02;;;6.38;;
50671;SDS011;46021;55.882;37.654;2024-01-30T12:31:26;16.65;;;10.85;;
50671;SDS011;46021;55.882;37.654;2024-01-30T12:33:54;21.58;;;11.55;;
50671;SDS011;46021;55.882;37.654;2024-01-30T12:36:22;10.85;;;5.85;;
50671;SDS011;46021;55.882;37.654;2024-01-30T12:38:49;10.98;;;5.25;;
50671;SDS011;46021;55.882;37.654;2024-01-30T12:41:16;9.63;;;5.07;;
50671;SDS011;46021;55.882;37.654;2024-01-30T12:43:44;19.00;;;7.25;;
50671;SDS011;46021;55.882;37.654;2024-01-30T12:46:13;21.48;;;11.90;;
50671;SDS011;46021;55.882;37.654;2024-01-30T12:48:42;14.00;;;7.13;;
50671;SDS011;46021;55.882;37.654;2024-01-30T12:51:09;26.17;;;12.73;;
50671;SDS011;46021;55.882;37.654;2024-01-30T12:53:36;20.67;;;11.97;;
50671;SDS011;46021;55.882;37.654;2024-01-30T12:56:03;18.55;;;7.30;;
50671;SDS011;46021;55.882;37.654;2024-01-30T12:58:30;17.33;;;7.00;;
50671;SDS011;46021;55.882;37.654;2024-01-30T13:00:57;15.25;;;6.80;;
50671;SDS011;46021;55.882;37.654;2024-01-30T13:03:25;17.50;;;6.67;;
50671;SDS011;46021;55.882;37.654;2024-01-30T13:05:53;15.37;;;7.73;;
50671;SDS011;46021;55.882;37.654;2024-01-30T13:08:21;19.35;;;12.25;;
50671;SDS011;46021;55.882;37.654;2024-01-30T13:10:48;22.27;;;6.60;;
50671;SDS011;46021;55.882;37.654;2024-01-30T13:13:15;16.27;;;6.77;;
50671;SDS011;46021;55.882;37.654;2024-01-30T13:15:42;17.55;;;6.93;;
50671;SDS011;46021;55.882;37.654;2024-01-30T13:18:10;11.13;;;6.03;;
50671;SDS011;46021;55.882;37.654;2024-01-30T13:20:37;20.80;;;7.03;;
50671;SDS011;46021;55.882;37.654;2024-01-30T13:23:08;19.67;;;11.35;;
50671;SDS011;46021;55.882;37.654;2024-01-30T13:25:35;19.73;;;11.57;;
50671;SDS011;46021;55.882;37.654;2024-01-30T13:28:02;19.13;;;6.30;;
50671;SDS011;46021;55.882;37.654;2024-01-30T13:30:29;31.15;;;6.85;;
50671;SDS011;46021;55.882;37.654;2024-01-30T13:32:57;15.02;;;7.40;;
50671;SDS011;46021;55.882;37.654;2024-01-30T13:35:24;15.82;;;7.15;;
50671;SDS011;46021;55.882;37.654;2024-01-30T13:37:51;12.00;;;6.03;;
50671;SDS011;46021;55.882;37.654;2024-01-30T13:40:19;15.13;;;7.07;;
50671;SDS011;46021;55.882;37.654;2024-01-30T13:42:47;20.98;;;11.88;;
50671;SDS011;46021;55.882;37.654;2024-01-30T13:45:15;12.03;;;6.00;;
50671;SDS011;46021;55.882;37.654;2024-01-30T13:47:42;10.57;;;5.53;;
50671;SDS011;46021;55.882;37.654;2024-01-30T13:50:09;17.27;;;7.57;;
50671;SDS011;46021;55.882;37.654;2024-01-30T13:52:40;19.58;;;12.05;;
50671;SDS011;46021;55.882;37.654;2024-01-30T13:55:07;16.90;;;6.30;;
50671;SDS011;46021;55.882;37.654;2024-01-30T13:57:36;15.35;;;7.00;;
50671;SDS011;46021;55.882;37.654;2024-01-30T14:00:04;17.15;;;11.25;;
50671;SDS011;46021;55.882;37.654;2024-01-30T14:02:38;19.55;;;12.25;;
50671;SDS011;46021;55.882;37.654;2024-01-30T14:05:06;14.57;;;6.03;;
50671;SDS011;46021;55.882;37.654;2024-01-30T14:07:33;18.00;;;7.68;;
50671;SDS011;46021;55.882;37.654;2024-01-30T14:10:02;19.13;;;5.53;;
50671;SDS011;46021;55.882;37.654;2024-01-30T14:12:30;22.30;;;11.93;;
50671;SDS011;46021;55.882;37.654;2024-01-30T14:14:58;22.73;;;7.95;;
50671;SDS011;46021;55.882;37.654;2024-01-30T14:17:25;22.65;;;12.98;;
50671;SDS011;46021;55.882;37.654;2024-01-30T14:19:52;15.10;;;7.03;;
50671;SDS011;46021;55.882;37.654;2024-01-30T14:22:19;13.43;;;6.17;;
50671;SDS011;46021;55.882;37.654;2024-01-30T14:24:46;22.27;;;6.70;;
50671;SDS011;46021;55.882;37.654;2024-01-30T14:27:14;16.92;;;7.85;;
50671;SDS011;46021;55.882;37.654;2024-01-30T14:29:41;20.43;;;7.40;;
50671;SDS011;46021;55.882;37.654;2024-01-30T14:32:10;16.60;;;6.30;;
50671;SDS011;46021;55.882;37.654;2024-01-30T14:34:37;21.27;;;8.88;;
50671;SDS011;46021;55.882;37.654;2024-01-30T14:37:04;18.67;;;7.17;;
50671;SDS011;46021;55.882;37.654;2024-01-30T14:39:31;27.33;;;8.57;;
50671;SDS011;46021;55.882;37.654;2024-01-30T14:41:59;22.30;;;8.15;;